Boyds, Washington
Current Conditions -  °F | °C
As of 6:28 PM on Friday 28 Nov 2014 (Local Time) from KOMK Reporting Station
Light Snow Light Snow  
Wind Chill: 14°   Ceiling: 2900
Heat Index: 28°   Visibility: 1.7mi
Dew Point: 25°   Wind: 23mph
Humidity: 88%   Direction: 360°N
Pressure: 29.31"   Gusts: 32mph
Location:  48.82°N, 118.18°W
Report Text: KOMK 290228Z AUTO 36020G28KT 1 3/4SM -SN BR BKN029 OVC036 M02/M04 A2931 RMK AO2 PK WND 36032/0205 P0002 I1000 T10221039
Loading
Personal Weather Stations






























Interactive Weather Map New forecast layout! Learn more

10-Day Weather Forecast

Advertisements
Track Severe Weather on mobile